Air Navigation Services of Czech Republic
Airport: LKNA Updated:  24.09.2018 00:06:06  UTC
 SPECI LKNA 24.09. 00:00 ...
SPECI LKNA 240000Z 30029KT 9999 -RA BKN013 OVC041 10/08 Q1011 RMK GRN=
 TAF LKNA 23.09. 23:00 ...
TAF LKNA 232300Z 2400/2500 31016KT 9999 SCT030      TEMPO 2400/2418 31018G34KT 5000 SHRA SCT012 BKN020      PROB30 TEMPO 2400/2404 33020G42KT      TEMPO 2418/2500 33016G28KT=